Time;durP1;ratioP1;P1;durP2;ratioP2;P2;SDS_P1;SDS_P2;PMS_P1;PMS_P2;Temp;Humidity;BMP_temperature;BMP_pressure;BME280_temperature;BME280_humidity;BME280_pressure;Samples;Min_cycle;Max_cycle;Signal;HPM_P1;HPM_P2
2024/04/12 00:06:49;;;;;;;1.25;1.15;;;19.50;48.80;21.50;103080.00;;;;22360832;26;20128;-41
2024/04/12 00:16:52;;;;;;;1.48;0.93;;;19.50;48.90;21.40;103069.00;;;;22365740;26;20250;-41
2024/04/12 00:26:54;;;;;;;2.88;1.10;;;19.40;49.00;21.40;103051.00;;;;22353459;26;20003;-44
2024/04/12 00:37:06;;;;;;;1.55;0.77;;;19.40;49.10;21.40;103060.00;;;;22311699;26;20322;-42
2024/04/12 00:47:16;;;;;;;2.10;1.10;;;19.40;49.30;21.40;103050.00;;;;22350786;26;20309;-41
2024/04/12 00:57:17;;;;;;;1.40;0.98;;;19.40;50.30;21.30;103052.00;;;;22336493;26;20003;-41
2024/04/12 01:07:18;;;;;;;1.10;1.03;;;19.30;49.40;21.20;103047.00;;;;22340304;26;20428;-41
2024/04/12 01:17:18;;;;;;;3.22;1.30;;;19.30;49.50;21.20;103022.00;;;;22351506;26;20037;-43
2024/04/12 01:27:19;;;;;;;1.20;1.10;;;19.20;49.60;21.20;103030.00;;;;22356469;26;20089;-41
2024/04/12 01:37:20;;;;;;;1.30;1.20;;;19.20;49.70;21.20;103006.00;;;;22354468;26;20077;-41
2024/04/12 01:47:27;;;;;;;1.23;1.10;;;19.20;49.90;21.10;103021.00;;;;22341061;26;20018;-42
2024/04/12 01:57:28;;;;;;;1.23;0.88;;;19.10;50.00;21.10;103013.00;;;;22498915;26;20445;-47
2024/04/12 02:07:34;;;;;;;2.10;1.13;;;19.10;50.10;21.10;102977.00;;;;22495474;26;20002;-41
2024/04/12 02:17:34;;;;;;;0.80;0.80;;;19.10;50.20;21.00;103006.00;;;;22477116;26;20525;-41
2024/04/12 02:27:38;;;;;;;1.90;1.15;;;19.10;50.30;21.00;103025.00;;;;22459301;26;20064;-41
2024/04/12 02:37:41;;;;;;;2.70;1.42;;;19.10;50.40;20.90;103011.00;;;;22482494;26;20056;-42
2024/04/12 02:47:42;;;;;;;3.05;1.10;;;19.00;50.50;20.90;103033.00;;;;22485427;26;20014;-41
2024/04/12 02:57:43;;;;;;;1.15;1.05;;;19.00;50.50;20.90;103029.00;;;;22469528;26;19995;-48
2024/04/12 03:07:46;;;;;;;3.37;1.43;;;19.00;50.70;20.90;103018.00;;;;22481688;26;20465;-41
2024/04/12 03:17:47;;;;;;;3.50;1.52;;;18.90;50.80;20.90;103013.00;;;;22454275;26;20014;-41
2024/04/12 03:27:48;;;;;;;2.42;1.88;;;18.90;50.90;20.90;103025.00;;;;22467114;26;20073;-41
2024/04/12 03:48:13;;;;;;;2.00;1.60;;;18.90;51.00;20.90;103030.00;;;;22506195;26;19998;-41
2024/04/12 03:58:17;;;;;;;1.70;1.40;;;18.90;51.10;20.80;103023.00;;;;22494163;26;20010;-41
2024/04/12 04:08:19;;;;;;;1.67;1.52;;;18.90;51.20;20.80;103009.00;;;;22507089;26;20021;-41
2024/04/12 04:18:19;;;;;;;2.63;1.77;;;18.90;51.30;20.80;103023.00;;;;22507332;26;20034;-41
2024/04/12 04:28:30;;;;;;;2.22;1.98;;;18.90;51.30;20.80;103026.00;;;;22462062;26;20060;-41
2024/04/12 04:38:31;;;;;;;2.05;1.95;;;18.80;51.40;20.80;103018.00;;;;22511855;26;20349;-41
2024/04/12 04:48:35;;;;;;;1.92;1.75;;;18.80;51.50;20.80;102992.00;;;;22508645;26;20003;-41
2024/04/12 04:58:35;;;;;;;2.10;2.00;;;18.80;51.60;20.80;102983.00;;;;22495190;26;20049;-41
2024/04/12 05:08:36;;;;;;;2.23;2.03;;;18.90;51.70;20.80;102965.00;;;;22510553;26;20571;-42
2024/04/12 05:18:37;;;;;;;6.57;2.17;;;18.90;51.90;20.90;103001.00;;;;22507617;26;20017;-46
2024/04/12 05:28:38;;;;;;;3.35;2.65;;;18.90;51.90;20.90;102989.00;;;;22498210;26;20014;-44
2024/04/12 05:38:39;;;;;;;3.25;2.50;;;18.90;52.10;21.00;103004.00;;;;22465950;26;20046;-47
2024/04/12 05:48:40;;;;;;;2.65;2.45;;;19.00;52.20;21.00;102993.00;;;;22498065;26;20538;-41
2024/04/12 05:58:41;;;;;;;4.05;2.42;;;19.00;52.30;21.10;102986.00;;;;22512967;26;19998;-43
2024/04/12 06:08:42;;;;;;;3.08;2.80;;;19.00;52.40;21.20;102990.00;;;;22484477;26;20261;-42
2024/04/12 06:18:50;;;;;;;2.72;2.53;;;19.10;52.50;21.30;102979.00;;;;22505432;26;20002;-41
2024/04/12 06:28:54;;;;;;;3.13;2.55;;;19.20;52.50;21.40;102997.00;;;;22487733;26;20030;-41
2024/04/12 06:38:55;;;;;;;2.70;2.50;;;19.30;52.60;21.40;102952.00;;;;22483228;26;20414;-41
2024/04/12 06:49:07;;;;;;;4.73;2.83;;;19.40;52.60;21.50;102980.00;;;;22491597;26;20016;-41
2024/04/12 06:59:08;;;;;;;4.18;2.70;;;19.40;52.60;21.60;102996.00;;;;22482067;26;19990;-43
2024/04/12 07:09:08;;;;;;;5.73;3.20;;;19.50;52.80;21.70;103003.00;;;;22488013;26;20425;-42
2024/04/12 07:19:12;;;;;;;4.35;3.60;;;19.50;52.90;21.80;103000.00;;;;22475911;26;20228;-44
2024/04/12 07:29:13;;;;;;;5.72;4.38;;;19.70;53.00;22.00;103002.00;;;;22451273;26;20051;-42
2024/04/12 07:39:15;;;;;;;6.22;4.25;;;19.80;53.20;22.20;102986.00;;;;22366162;26;20040;-45
2024/04/12 07:49:17;;;;;;;4.70;4.30;;;20.00;53.20;22.50;102975.00;;;;22485223;26;20006;-41
2024/04/12 07:59:25;;;;;;;5.32;4.82;;;20.20;53.30;22.70;102964.00;;;;22399660;26;20018;-45
2024/04/12 08:09:40;;;;;;;5.22;4.75;;;20.40;53.20;22.90;102968.00;;;;22474690;26;20013;-44
2024/04/12 08:19:45;;;;;;;8.27;7.47;;;20.60;53.10;23.00;102969.00;;;;22513305;26;20436;-45
2024/04/12 08:29:49;;;;;;;7.05;6.18;;;20.70;53.00;23.10;102972.00;;;;22503046;26;20003;-44
2024/04/12 08:39:53;;;;;;;9.60;6.85;;;20.80;53.00;23.30;102952.00;;;;22507934;26;20002;-43
2024/04/12 08:50:12;;;;;;;7.93;5.90;;;20.90;53.20;23.50;102962.00;;;;22472171;26;20349;-43
2024/04/12 09:00:18;;;;;;;12.32;5.90;;;21.10;53.50;23.70;102966.00;;;;22496388;26;20089;-42
2024/04/12 09:10:19;;;;;;;5.97;5.00;;;21.30;53.20;23.90;102968.00;;;;22515653;26;19999;-46
2024/04/12 09:20:29;;;;;;;7.55;5.30;;;21.40;53.00;24.10;102950.00;;;;22512432;26;20468;-49
2024/04/12 09:41:02;;;;;;;14.23;4.70;;;21.80;52.80;24.40;102956.00;;;;22457700;26;20349;-44
2024/04/12 10:42:53;;;;;;;5.57;5.00;;;22.80;52.40;25.50;102920.00;;;;22492926;26;19999;-42
2024/04/12 10:52:57;;;;;;;5.60;4.50;;;23.00;52.10;25.60;102862.00;;;;22496070;26;20451;-46
2024/04/12 11:03:00;;;;;;;5.78;4.75;;;23.00;52.40;26.00;102864.00;;;;22440922;26;20220;-43
2024/04/12 11:13:01;;;;;;;6.72;3.83;;;23.30;52.50;26.20;102872.00;;;;22469254;26;20006;-44
2024/04/12 11:33:31;;;;;;;21.88;20.25;;;23.60;51.50;26.30;102873.00;;;;22502499;26;19999;-47
2024/04/12 11:43:33;;;;;;;23.25;21.13;;;23.60;51.40;26.60;102836.00;;;;22525694;26;20423;-43
2024/04/12 11:53:36;;;;;;;22.15;20.38;;;23.80;51.50;27.00;102805.00;;;;22500414;26;20003;-50
2024/04/12 12:03:36;;;;;;;22.88;20.92;;;24.00;51.70;27.60;102811.00;;;;22523747;26;21007;-46
2024/04/12 12:13:42;;;;;;;22.48;20.67;;;24.40;52.20;28.20;102790.00;;;;22523434;26;19999;-51
2024/04/12 12:23:42;;;;;;;23.20;21.30;;;24.90;51.40;28.70;102792.00;;;;22515887;26;20373;-49
2024/04/12 12:33:48;;;;;;;23.67;21.70;;;25.40;51.00;29.00;102778.00;;;;22473319;26;20019;-47
2024/04/12 12:43:49;;;;;;;23.65;21.55;;;25.80;50.40;29.20;102779.00;;;;22459207;26;20035;-47
2024/04/12 12:53:53;;;;;;;23.47;21.57;;;26.10;50.00;29.30;102765.00;;;;22498633;26;20017;-47
2024/04/12 21:11:29;;;;;;;2.35;1.75;;;20.80;51.60;22.80;102508.00;;;;22391349;26;20017;-44
2024/04/12 21:21:30;;;;;;;1.77;1.60;;;20.70;51.20;22.70;102485.00;;;;22511733;26;19995;-44
2024/04/12 21:31:30;;;;;;;2.15;1.70;;;20.60;51.30;22.60;102487.00;;;;22499450;26;19999;-46
2024/04/12 21:41:31;;;;;;;1.73;1.63;;;20.50;51.40;22.40;102480.00;;;;22498453;26;20003;-46
2024/04/12 21:51:33;;;;;;;2.15;1.75;;;20.40;51.50;22.30;102476.00;;;;22492883;26;20232;-43
2024/04/12 22:01:34;;;;;;;1.95;1.55;;;20.30;51.70;22.20;102475.00;;;;22394343;26;20007;-43
2024/04/12 22:11:34;;;;;;;1.63;1.52;;;20.20;51.70;22.00;102468.00;;;;22391132;26;21767;-42
2024/04/12 22:21:35;;;;;;;1.53;1.43;;;20.00;51.70;21.90;102472.00;;;;22361368;26;19999;-42
2024/04/12 22:31:36;;;;;;;2.97;1.97;;;19.90;51.80;21.70;102455.00;;;;22387205;26;20438;-47
2024/04/12 22:41:36;;;;;;;1.80;1.70;;;19.70;52.10;21.60;102448.00;;;;22504848;26;20075;-43
2024/04/12 22:51:38;;;;;;;1.50;1.40;;;19.60;52.20;21.50;102450.00;;;;22497717;26;20395;-41
2024/04/12 23:01:38;;;;;;;2.03;1.83;;;19.50;52.40;21.40;102431.00;;;;22493941;26;20419;-44
2024/04/12 23:11:42;;;;;;;1.53;1.30;;;19.40;52.50;21.30;102445.00;;;;22453762;26;20640;-42
2024/04/12 23:21:43;;;;;;;1.65;1.55;;;19.30;52.80;21.20;102430.00;;;;22466545;26;20000;-47
2024/04/12 23:31:45;;;;;;;1.57;1.47;;;19.20;52.90;21.10;102444.00;;;;22496065;26;20060;-45
2024/04/12 23:41:45;;;;;;;1.67;1.58;;;19.20;53.20;21.00;102436.00;;;;22460301;26;20010;-42
2024/04/12 23:51:46;;;;;;;1.40;1.30;;;19.10;53.40;21.00;102443.00;;;;22500670;26;20014;-42
